Time;durP1;ratioP1;P1;durP2;ratioP2;P2;SDS_P1;SDS_P2;PMS_P1;PMS_P2;Temp;Humidity;BMP_temperature;BMP_pressure;BME280_temperature;BME280_humidity;BME280_pressure;Samples;Min_cycle;Max_cycle;Signal;HPM_P1;HPM_P2
2024/01/15 00:01:04;;;;;;;2.67;2.23;;;3.60;99.90;;;;;;5112704;28;20207;-65
2024/01/15 00:03:33;;;;;;;2.27;2.17;;;3.70;99.90;;;;;;5112076;28;20226;-65
2024/01/15 00:06:02;;;;;;;2.67;2.40;;;3.70;99.90;;;;;;5112521;28;21001;-65
2024/01/15 00:08:31;;;;;;;2.67;2.20;;;3.80;99.90;;;;;;5112410;28;20219;-65
2024/01/15 00:10:59;;;;;;;2.60;2.17;;;3.80;99.90;;;;;;5112627;28;20622;-65
2024/01/15 00:13:28;;;;;;;3.50;2.13;;;3.90;99.90;;;;;;5112667;28;20196;-66
2024/01/15 00:15:56;;;;;;;2.63;2.27;;;3.80;99.90;;;;;;5112394;28;20188;-65
2024/01/15 00:18:24;;;;;;;2.73;2.37;;;3.70;99.90;;;;;;5112483;28;20634;-65
2024/01/15 00:20:53;;;;;;;5.53;2.53;;;3.80;99.90;;;;;;5112176;28;20661;-65
2024/01/15 00:23:30;;;;;;;3.80;2.23;;;3.70;99.90;;;;;;5111910;28;20245;-66
2024/01/15 00:26:05;;;;;;;4.10;2.03;;;3.40;99.90;;;;;;5112225;28;20199;-65
2024/01/15 00:28:38;;;;;;;2.73;2.50;;;3.50;99.90;;;;;;5112237;28;20222;-65
2024/01/15 00:31:06;;;;;;;5.53;2.23;;;3.40;99.90;;;;;;5111977;28;20202;-65
2024/01/15 00:33:35;;;;;;;5.73;3.00;;;3.60;99.90;;;;;;5111765;28;20561;-65
2024/01/15 00:36:04;;;;;;;5.90;3.33;;;3.60;99.90;;;;;;5112080;28;20195;-66
2024/01/15 00:38:39;;;;;;;4.40;2.80;;;3.60;99.90;;;;;;5111787;28;20288;-65
2024/01/15 00:41:10;;;;;;;2.60;2.30;;;3.60;99.90;;;;;;5111768;28;20187;-65
2024/01/15 00:43:38;;;;;;;2.70;2.43;;;3.70;99.90;;;;;;5111799;28;20228;-65
2024/01/15 00:46:07;;;;;;;2.47;1.87;;;3.70;99.90;;;;;;5111796;28;20188;-65
2024/01/15 00:48:35;;;;;;;4.30;2.73;;;3.70;99.90;;;;;;5111181;28;20222;-65
2024/01/15 00:51:04;;;;;;;2.20;2.03;;;3.60;99.90;;;;;;5092988;28;21006;-65
2024/01/15 00:53:33;;;;;;;4.07;2.40;;;3.70;99.90;;;;;;5111384;28;20192;-65
2024/01/15 00:56:03;;;;;;;2.17;2.07;;;3.70;99.90;;;;;;5111638;28;20930;-66
2024/01/15 00:58:31;;;;;;;2.10;2.00;;;3.70;99.90;;;;;;5111568;28;20228;-66
2024/01/15 01:00:59;;;;;;;4.13;2.30;;;3.80;99.90;;;;;;5111542;28;20206;-66
2024/01/15 01:03:28;;;;;;;3.03;2.53;;;3.60;99.90;;;;;;5111209;28;20230;-65
2024/01/15 01:05:58;;;;;;;3.30;3.00;;;3.40;99.90;;;;;;5111789;28;20200;-65
2024/01/15 01:08:33;;;;;;;5.30;2.30;;;3.60;99.90;;;;;;5111258;28;20246;-65
2024/01/15 01:11:07;;;;;;;5.20;3.13;;;3.80;99.90;;;;;;5111531;28;20191;-65
2024/01/15 01:13:39;;;;;;;2.60;2.40;;;3.90;99.90;;;;;;5111367;28;20571;-66
2024/01/15 01:16:10;;;;;;;2.90;2.27;;;3.90;99.90;;;;;;5111430;28;20677;-65
2024/01/15 01:18:39;;;;;;;2.50;2.30;;;3.70;99.90;;;;;;5111262;28;20263;-65
2024/01/15 01:21:07;;;;;;;4.43;2.30;;;3.70;99.90;;;;;;5111278;28;20279;-65
2024/01/15 01:23:36;;;;;;;3.67;2.13;;;3.70;99.90;;;;;;5111013;28;20199;-65
2024/01/15 01:26:19;;;;;;;3.07;2.60;;;3.80;99.90;;;;;;5110859;28;20283;-65
2024/01/15 01:28:50;;;;;;;3.63;2.40;;;3.80;99.90;;;;;;5110938;28;20289;-65
2024/01/15 01:31:27;;;;;;;3.20;2.47;;;3.80;99.90;;;;;;5110819;28;20199;-65
2024/01/15 01:34:03;;;;;;;3.23;2.83;;;3.80;99.90;;;;;;5110836;28;20525;-65
2024/01/15 01:36:42;;;;;;;3.83;2.30;;;3.80;99.90;;;;;;5111202;28;20532;-66
2024/01/15 01:39:11;;;;;;;2.83;2.60;;;3.80;99.90;;;;;;5110940;28;20224;-66
2024/01/15 01:41:41;;;;;;;3.80;2.67;;;3.90;99.90;;;;;;5110750;28;20274;-64
2024/01/15 01:44:09;;;;;;;3.77;2.77;;;4.00;99.90;;;;;;5110438;28;20198;-65
2024/01/15 01:46:46;;;;;;;2.80;2.40;;;3.70;99.90;;;;;;5110552;28;20609;-65
2024/01/15 01:49:15;;;;;;;2.80;2.60;;;3.60;99.90;;;;;;5109042;28;20248;-65
2024/01/15 01:51:53;;;;;;;2.37;2.27;;;3.70;99.90;;;;;;5110461;28;20201;-65
2024/01/15 01:54:22;;;;;;;3.37;2.37;;;3.70;99.90;;;;;;5110214;28;20287;-65
2024/01/15 01:56:52;;;;;;;3.43;2.47;;;3.60;99.90;;;;;;5110256;28;20195;-66
2024/01/15 01:59:21;;;;;;;2.67;2.33;;;3.70;99.90;;;;;;5110644;28;20215;-65
2024/01/15 02:01:50;;;;;;;2.33;2.23;;;3.70;99.90;;;;;;5110219;28;20217;-65
2024/01/15 02:04:19;;;;;;;4.13;2.50;;;3.60;99.90;;;;;;5110068;28;20228;-65
2024/01/15 02:06:49;;;;;;;2.73;2.30;;;3.80;99.90;;;;;;5110282;28;20198;-65
2024/01/15 02:09:18;;;;;;;2.47;2.30;;;3.70;99.90;;;;;;5109787;28;20243;-65
2024/01/15 02:11:48;;;;;;;2.30;2.20;;;3.70;99.90;;;;;;5110340;28;20663;-65
2024/01/15 02:14:18;;;;;;;2.63;2.43;;;3.70;99.90;;;;;;5110294;28;20195;-65
2024/01/15 02:16:46;;;;;;;4.43;2.50;;;3.60;99.90;;;;;;5110199;28;20696;-66
2024/01/15 02:19:17;;;;;;;3.07;2.53;;;3.50;99.90;;;;;;5109989;28;20191;-65
2024/01/15 02:21:45;;;;;;;2.80;2.53;;;3.30;99.90;;;;;;5110160;28;20206;-65
2024/01/15 02:24:15;;;;;;;2.83;2.30;;;3.50;99.90;;;;;;5110049;28;20279;-65
2024/01/15 02:26:44;;;;;;;2.60;2.40;;;3.40;99.90;;;;;;5110153;28;20817;-65
2024/01/15 02:29:13;;;;;;;2.77;2.57;;;3.50;99.90;;;;;;5110054;28;20695;-66
2024/01/15 02:31:41;;;;;;;2.70;2.50;;;3.40;99.90;;;;;;5110014;28;20192;-65
2024/01/15 02:34:10;;;;;;;4.07;3.10;;;3.30;99.90;;;;;;5109831;28;20290;-65
2024/01/15 02:36:38;;;;;;;3.00;2.70;;;3.10;99.90;;;;;;5109606;28;20201;-65
2024/01/15 02:39:16;;;;;;;5.00;2.60;;;3.20;99.90;;;;;;5109426;28;20294;-65
2024/01/15 02:41:50;;;;;;;3.90;2.97;;;3.40;99.90;;;;;;5109288;28;20225;-65
2024/01/15 02:44:20;;;;;;;2.97;2.77;;;3.40;99.90;;;;;;5109200;28;20301;-66
2024/01/15 02:46:48;;;;;;;2.87;2.67;;;3.40;99.90;;;;;;5109579;28;20536;-65
2024/01/15 02:49:16;;;;;;;3.13;2.93;;;3.30;99.90;;;;;;5109083;28;20651;-65
2024/01/15 02:51:50;;;;;;;2.90;2.70;;;3.40;99.90;;;;;;5109375;28;20214;-65
2024/01/15 02:54:19;;;;;;;3.20;3.00;;;3.30;99.90;;;;;;5108893;28;20192;-65
2024/01/15 02:57:00;;;;;;;;;;;;;;;;;;;;;
2024/01/15 02:59:37;;;;;;;3.17;2.97;;;3.10;99.90;;;;;;5109334;28;20209;-65
2024/01/15 03:02:17;;;;;;;3.23;2.83;;;3.30;99.90;;;;;;5108810;28;20567;-65
2024/01/15 03:04:56;;;;;;;3.00;2.80;;;3.10;99.90;;;;;;5108750;28;20665;-65
2024/01/15 03:07:24;;;;;;;3.33;2.73;;;3.20;99.90;;;;;;5109276;28;20678;-66
2024/01/15 03:09:52;;;;;;;3.17;2.83;;;3.20;99.90;;;;;;5109030;28;20284;-65
2024/01/15 03:15:47;;;;;;;2.97;2.67;;;3.20;99.90;;;;;;5109122;28;20251;-65
2024/01/15 03:18:19;;;;;;;3.70;3.40;;;3.30;99.90;;;;;;5108856;28;20191;-65
2024/01/15 03:20:53;;;;;;;3.13;2.53;;;3.20;99.90;;;;;;5107861;28;20588;-65
2024/01/15 03:23:25;;;;;;;4.07;3.20;;;3.30;99.90;;;;;;5108882;28;20653;-64
2024/01/15 03:25:53;;;;;;;2.93;2.83;;;3.20;99.90;;;;;;5108612;28;20214;-65
2024/01/15 03:28:23;;;;;;;4.13;3.43;;;3.20;99.90;;;;;;5108723;28;20193;-65
2024/01/15 03:30:51;;;;;;;3.20;3.00;;;3.20;99.90;;;;;;5109049;28;20299;-65
2024/01/15 03:33:20;;;;;;;3.80;3.57;;;3.20;99.90;;;;;;5108752;28;20198;-65
2024/01/15 03:35:51;;;;;;;4.50;3.57;;;3.30;99.90;;;;;;5090513;28;20256;-65
2024/01/15 03:38:20;;;;;;;3.90;3.60;;;3.20;99.90;;;;;;5108885;28;20203;-65
2024/01/15 03:40:48;;;;;;;4.07;3.77;;;3.20;99.90;;;;;;5108789;28;20196;-64
2024/01/15 03:43:16;;;;;;;3.70;3.40;;;3.30;99.90;;;;;;5109133;28;20264;-65
2024/01/15 03:45:46;;;;;;;3.60;3.37;;;3.20;99.90;;;;;;5108976;28;20215;-65
2024/01/15 03:48:15;;;;;;;3.70;3.40;;;3.20;99.90;;;;;;5109020;28;20318;-66
2024/01/15 03:50:43;;;;;;;4.27;3.73;;;3.20;99.90;;;;;;5108570;28;20235;-65
2024/01/15 03:53:11;;;;;;;4.40;4.00;;;3.20;99.90;;;;;;5108914;28;20195;-65
2024/01/15 03:55:43;;;;;;;4.00;3.37;;;3.20;99.90;;;;;;5108698;28;20192;-64
2024/01/15 03:58:11;;;;;;;3.43;3.23;;;3.30;99.90;;;;;;5108970;28;20213;-65
2024/01/15 04:00:39;;;;;;;3.23;3.03;;;3.30;99.90;;;;;;5108833;28;20316;-65
2024/01/15 04:03:09;;;;;;;3.77;3.40;;;3.20;99.90;;;;;;5108470;28;20230;-65
2024/01/15 04:05:39;;;;;;;3.60;3.30;;;3.20;99.90;;;;;;5108582;28;20198;-65
2024/01/15 04:08:07;;;;;;;4.33;3.37;;;3.20;99.90;;;;;;5108263;28;20195;-65
2024/01/15 04:10:36;;;;;;;3.20;3.00;;;3.30;99.90;;;;;;5090039;28;20244;-65
2024/01/15 04:13:04;;;;;;;2.93;2.73;;;3.30;99.90;;;;;;5108529;28;20196;-65
2024/01/15 04:15:32;;;;;;;2.70;2.60;;;3.20;99.90;;;;;;5108610;28;20199;-65
2024/01/15 04:18:01;;;;;;;3.20;3.00;;;3.30;99.90;;;;;;5108194;28;20200;-64
2024/01/15 04:20:31;;;;;;;2.73;2.53;;;3.30;99.90;;;;;;5108430;28;20297;-65
2024/01/15 04:23:00;;;;;;;2.90;2.60;;;3.20;99.90;;;;;;5108282;28;20282;-65
2024/01/15 04:25:28;;;;;;;2.90;2.73;;;3.10;99.90;;;;;;5089910;28;20202;-65
2024/01/15 04:27:56;;;;;;;3.33;3.03;;;3.20;99.90;;;;;;5108504;28;20652;-65
2024/01/15 04:30:25;;;;;;;3.10;2.90;;;3.10;99.90;;;;;;5108363;28;20238;-65
2024/01/15 04:32:53;;;;;;;3.13;2.93;;;3.10;99.90;;;;;;5112282;28;20200;-65
2024/01/15 04:35:21;;;;;;;2.93;2.73;;;3.10;99.90;;;;;;5112019;28;20202;-65
2024/01/15 04:37:51;;;;;;;2.90;2.70;;;3.00;99.90;;;;;;5112215;28;20207;-65
2024/01/15 04:40:19;;;;;;;2.90;2.70;;;3.00;99.90;;;;;;5111933;28;20670;-64
2024/01/15 04:42:48;;;;;;;2.90;2.70;;;3.00;99.90;;;;;;5112197;28;20200;-65
2024/01/15 04:45:18;;;;;;;2.83;2.63;;;3.00;99.90;;;;;;5112275;28;20191;-66
2024/01/15 04:47:46;;;;;;;3.33;3.03;;;3.00;99.90;;;;;;5112056;28;20729;-65
2024/01/15 04:50:15;;;;;;;2.33;2.13;;;3.00;99.90;;;;;;5112289;28;20608;-65
2024/01/15 04:52:43;;;;;;;2.70;2.50;;;3.10;99.90;;;;;;5112265;28;20239;-65
2024/01/15 04:55:13;;;;;;;3.10;2.90;;;3.10;99.90;;;;;;5112055;28;20199;-65
2024/01/15 04:57:41;;;;;;;2.80;2.60;;;2.90;99.90;;;;;;5112410;28;20661;-65
2024/01/15 05:00:11;;;;;;;3.13;2.87;;;3.00;99.90;;;;;;5112269;28;20204;-65
2024/01/15 05:02:39;;;;;;;3.33;2.77;;;3.10;99.90;;;;;;5111965;28;20239;-65
2024/01/15 05:05:07;;;;;;;3.07;2.80;;;3.10;99.90;;;;;;5111772;28;20223;-65
2024/01/15 05:07:36;;;;;;;2.70;2.50;;;3.10;99.90;;;;;;5111928;28;20206;-65
2024/01/15 05:10:04;;;;;;;2.90;2.30;;;3.10;99.90;;;;;;5111629;28;20198;-65
2024/01/15 05:12:34;;;;;;;3.87;3.03;;;3.10;99.90;;;;;;5111668;28;20227;-65
2024/01/15 05:15:03;;;;;;;4.47;2.70;;;3.10;99.90;;;;;;5111605;28;20199;-65
2024/01/15 05:17:31;;;;;;;2.57;2.40;;;3.20;99.90;;;;;;5111638;28;20198;-64
2024/01/15 05:20:00;;;;;;;2.77;2.50;;;3.20;99.90;;;;;;5111762;28;20201;-64
2024/01/15 05:22:28;;;;;;;3.33;2.50;;;3.10;99.90;;;;;;5111757;28;20368;-65
2024/01/15 05:24:57;;;;;;;3.87;3.47;;;3.10;99.90;;;;;;5111357;28;20211;-65
2024/01/15 05:27:25;;;;;;;2.53;2.33;;;3.10;99.90;;;;;;5111369;28;20201;-66
2024/01/15 05:29:54;;;;;;;2.80;2.60;;;3.00;99.90;;;;;;5111203;28;20199;-64
2024/01/15 05:32:23;;;;;;;2.60;2.37;;;3.00;99.90;;;;;;5111303;28;20280;-64
2024/01/15 05:34:51;;;;;;;2.27;2.17;;;3.00;99.90;;;;;;5111007;28;20201;-65
2024/01/15 05:37:20;;;;;;;4.57;2.30;;;2.80;99.90;;;;;;5110982;28;20672;-65
2024/01/15 05:39:48;;;;;;;2.87;2.13;;;2.90;99.90;;;;;;5110805;28;20210;-64
2024/01/15 05:42:16;;;;;;;4.27;2.63;;;2.80;99.90;;;;;;5110266;28;20204;-65
2024/01/15 05:44:45;;;;;;;5.30;2.67;;;2.80;99.90;;;;;;5110683;28;20287;-65
2024/01/15 05:47:14;;;;;;;2.53;2.40;;;2.80;99.90;;;;;;5111067;28;20219;-65
2024/01/15 05:49:43;;;;;;;2.93;2.20;;;2.70;99.90;;;;;;5110754;28;20737;-65
2024/01/15 05:52:11;;;;;;;4.73;2.17;;;2.70;99.90;;;;;;5110925;28;20317;-65
2024/01/15 05:54:39;;;;;;;3.07;2.77;;;2.80;99.90;;;;;;5110694;28;20199;-65
2024/01/15 05:57:07;;;;;;;6.03;2.40;;;2.80;99.90;;;;;;5110974;28;20287;-65
2024/01/15 05:59:36;;;;;;;3.73;2.23;;;2.70;99.90;;;;;;5110816;28;20184;-64
2024/01/15 06:02:05;;;;;;;3.70;2.40;;;2.70;99.90;;;;;;5110733;28;20668;-65
2024/01/15 06:04:34;;;;;;;2.37;2.17;;;2.60;99.90;;;;;;5110753;28;20204;-65
2024/01/15 06:07:03;;;;;;;5.53;2.73;;;2.60;99.90;;;;;;5110564;28;20616;-65
2024/01/15 06:09:32;;;;;;;5.77;2.70;;;2.50;99.90;;;;;;5110634;28;20202;-65
2024/01/15 06:12:00;;;;;;;8.23;3.93;;;2.60;99.90;;;;;;5110409;28;20680;-64
2024/01/15 06:14:28;;;;;;;4.20;2.70;;;2.50;99.90;;;;;;5110219;28;20210;-64
2024/01/15 06:16:56;;;;;;;7.23;2.70;;;2.70;99.90;;;;;;5110414;28;20198;-65
2024/01/15 06:19:24;;;;;;;2.80;2.27;;;2.80;99.90;;;;;;5110372;28;20574;-65
2024/01/15 06:21:54;;;;;;;4.33;2.50;;;2.70;99.90;;;;;;5110113;28;20189;-65
2024/01/15 06:24:22;;;;;;;4.53;2.53;;;2.80;99.90;;;;;;5109742;28;20194;-65
2024/01/15 06:26:51;;;;;;;5.80;2.70;;;2.80;99.90;;;;;;5109964;28;20272;-65
2024/01/15 06:29:20;;;;;;;3.83;2.50;;;2.80;99.90;;;;;;5109801;28;20249;-65
2024/01/15 06:31:48;;;;;;;2.73;2.13;;;2.80;99.90;;;;;;5109702;28;20211;-65
2024/01/15 06:34:17;;;;;;;4.23;3.13;;;2.90;99.90;;;;;;5109691;28;20199;-65
2024/01/15 06:36:45;;;;;;;7.43;2.90;;;2.90;99.90;;;;;;5107941;28;20211;-65
2024/01/15 06:39:36;;;;;;;8.93;2.83;;;2.80;99.90;;;;;;5109527;28;20201;-65
2024/01/15 06:42:23;;;;;;;5.43;2.40;;;2.90;99.90;;;;;;5109467;28;20769;-65
2024/01/15 06:44:51;;;;;;;5.77;2.70;;;2.80;99.90;;;;;;5109289;28;20207;-65
2024/01/15 06:47:20;;;;;;;7.53;2.70;;;2.90;99.90;;;;;;5109495;28;20195;-65
2024/01/15 06:49:50;;;;;;;5.97;3.37;;;2.90;99.90;;;;;;5109020;28;20651;-66
2024/01/15 06:53:01;;;;;;;6.50;2.60;;;3.10;99.90;;;;;;5109135;28;20304;-65
2024/01/15 06:55:56;;;;;;;3.73;2.23;;;3.20;99.90;;;;;;5085761;28;20321;-66
2024/01/15 06:58:27;;;;;;;6.00;2.40;;;2.90;99.90;;;;;;5086076;28;20734;-66
2024/01/15 07:00:58;;;;;;;3.47;2.40;;;2.90;99.90;;;;;;5086364;28;20193;-66
2024/01/15 07:03:26;;;;;;;7.90;2.47;;;2.90;99.90;;;;;;5085996;28;20278;-65
2024/01/15 07:05:57;;;;;;;5.17;2.63;;;2.90;99.90;;;;;;5085960;28;20301;-65
2024/01/15 07:08:25;;;;;;;4.53;2.63;;;2.90;99.90;;;;;;5068724;28;20475;-65
2024/01/15 07:10:53;;;;;;;2.90;2.70;;;3.00;99.90;;;;;;5085984;28;21019;-65
2024/01/15 07:13:23;;;;;;;4.83;3.10;;;2.90;99.90;;;;;;5085862;28;20848;-65
2024/01/15 07:15:56;;;;;;;7.37;2.53;;;2.70;99.90;;;;;;5085770;28;20303;-65
2024/01/15 07:18:25;;;;;;;4.20;3.40;;;2.70;99.90;;;;;;5085687;28;20204;-65
2024/01/15 07:21:09;;;;;;;3.53;3.23;;;2.50;99.90;;;;;;5099217;28;20664;-66
2024/01/15 07:23:42;;;;;;;6.40;3.50;;;2.50;99.90;;;;;;5108838;28;20688;-65
2024/01/15 07:26:11;;;;;;;5.50;3.10;;;2.70;99.90;;;;;;5109028;28;20193;-65
2024/01/15 07:28:45;;;;;;;7.43;3.43;;;2.70;99.90;;;;;;5108906;28;20247;-66
2024/01/15 07:31:13;;;;;;;5.67;3.57;;;2.70;99.90;;;;;;5108633;28;20281;-65
2024/01/15 07:33:46;;;;;;;5.43;2.97;;;2.70;99.90;;;;;;5108550;28;20283;-66
2024/01/15 07:36:14;;;;;;;5.10;3.60;;;2.50;99.90;;;;;;5108677;28;20212;-64
2024/01/15 07:38:43;;;;;;;3.93;3.53;;;2.60;99.90;;;;;;5108815;28;20218;-65
2024/01/15 07:41:14;;;;;;;4.93;3.97;;;2.70;99.90;;;;;;5108757;28;20270;-65
2024/01/15 07:43:44;;;;;;;6.03;3.93;;;2.70;99.90;;;;;;5108703;28;20281;-65
2024/01/15 07:46:15;;;;;;;6.83;3.97;;;2.70;99.90;;;;;;5108528;28;20192;-65
2024/01/15 07:48:43;;;;;;;10.70;3.90;;;2.70;99.90;;;;;;5108276;28;20198;-65
2024/01/15 07:51:12;;;;;;;4.53;3.77;;;2.80;99.90;;;;;;5108309;28;20274;-65
2024/01/15 07:53:40;;;;;;;5.43;3.97;;;2.70;99.90;;;;;;5108281;28;20837;-64
2024/01/15 07:56:09;;;;;;;5.77;3.97;;;2.60;99.90;;;;;;5108569;28;20286;-65
2024/01/15 07:58:37;;;;;;;5.23;3.17;;;2.70;99.90;;;;;;5108543;28;20198;-65
2024/01/15 08:01:07;;;;;;;3.70;3.40;;;2.70;99.90;;;;;;5108331;28;20199;-65
2024/01/15 08:03:35;;;;;;;6.17;3.67;;;2.70;99.90;;;;;;5108489;28;20226;-65
2024/01/15 08:06:04;;;;;;;4.07;3.37;;;2.70;99.90;;;;;;5109174;28;20196;-65
2024/01/15 08:08:32;;;;;;;5.07;3.80;;;2.80;99.90;;;;;;5112742;28;20197;-66
2024/01/15 08:11:01;;;;;;;4.37;3.50;;;2.70;99.90;;;;;;5112475;28;20195;-65
2024/01/15 08:13:30;;;;;;;4.00;3.53;;;2.80;99.90;;;;;;5112554;28;20225;-65
2024/01/15 08:15:59;;;;;;;4.93;3.80;;;2.80;99.90;;;;;;5107367;28;20197;-64
2024/01/15 08:18:29;;;;;;;5.13;3.37;;;2.70;99.90;;;;;;5101602;28;20207;-69
2024/01/15 08:20:57;;;;;;;4.80;4.27;;;2.90;99.90;;;;;;5122755;27;20205;-64
2024/01/15 08:23:28;;;;;;;8.27;4.00;;;3.00;99.90;;;;;;5132845;27;20197;-63
2024/01/15 08:25:56;;;;;;;5.23;3.43;;;3.00;99.90;;;;;;5132879;27;20213;-64
2024/01/15 08:28:24;;;;;;;8.00;4.40;;;3.20;99.90;;;;;;5132810;27;20195;-65
2024/01/15 08:30:52;;;;;;;5.43;3.67;;;3.30;99.90;;;;;;5132429;27;20215;-64
2024/01/15 08:33:21;;;;;;;7.57;3.70;;;3.40;99.90;;;;;;5132688;27;20225;-62
2024/01/15 08:35:51;;;;;;;3.20;2.90;;;3.70;99.90;;;;;;5114189;27;20709;-65
2024/01/15 08:38:20;;;;;;;3.27;3.00;;;3.20;99.90;;;;;;5132896;27;20274;-64
2024/01/15 08:40:51;;;;;;;5.07;3.37;;;3.10;99.90;;;;;;5132400;27;20202;-64
2024/01/15 08:43:19;;;;;;;3.30;3.00;;;3.20;99.90;;;;;;5132543;27;20198;-63
2024/01/15 08:45:48;;;;;;;3.80;3.03;;;3.00;99.90;;;;;;5131988;27;20273;-65
2024/01/15 08:48:17;;;;;;;6.07;2.97;;;3.00;99.90;;;;;;5132262;27;20194;-65
2024/01/15 08:50:46;;;;;;;4.37;2.77;;;3.00;99.90;;;;;;5131689;27;20278;-65
2024/01/15 08:53:18;;;;;;;5.07;3.07;;;3.00;99.90;;;;;;5132177;27;20203;-65
2024/01/15 08:55:47;;;;;;;4.60;3.00;;;3.10;99.90;;;;;;5131875;27;20208;-66
2024/01/15 08:58:16;;;;;;;4.90;2.43;;;3.10;99.90;;;;;;5131989;27;20205;-65
2024/01/15 09:00:44;;;;;;;2.77;2.53;;;3.20;99.90;;;;;;5131716;27;20218;-66
2024/01/15 09:03:13;;;;;;;3.90;2.73;;;3.10;99.90;;;;;;5131709;27;20713;-66
2024/01/15 09:05:42;;;;;;;3.30;2.50;;;3.10;99.90;;;;;;5132022;27;20216;-65
2024/01/15 09:08:11;;;;;;;3.83;2.43;;;3.10;99.90;;;;;;5131389;27;20187;-65
2024/01/15 09:10:41;;;;;;;4.63;2.70;;;3.30;99.90;;;;;;5131335;27;20199;-65
2024/01/15 09:13:09;;;;;;;4.77;2.67;;;3.30;99.90;;;;;;5131348;27;20305;-64
2024/01/15 09:15:38;;;;;;;5.00;2.70;;;3.20;99.90;;;;;;5131645;27;20225;-64
2024/01/15 09:18:07;;;;;;;6.93;2.73;;;3.20;99.90;;;;;;5130013;27;20662;-65
2024/01/15 09:20:36;;;;;;;3.10;2.60;;;3.00;99.90;;;;;;5131539;27;20195;-65
2024/01/15 09:23:05;;;;;;;2.53;2.33;;;2.80;99.90;;;;;;5131482;27;20199;-64
2024/01/15 09:25:33;;;;;;;3.73;2.37;;;2.90;99.90;;;;;;5131737;27;20215;-64
2024/01/15 09:28:03;;;;;;;3.47;2.43;;;3.00;99.90;;;;;;5131405;27;20195;-64
2024/01/15 09:30:31;;;;;;;2.40;2.20;;;2.90;99.90;;;;;;5131630;27;20712;-64
2024/01/15 09:33:00;;;;;;;4.00;2.20;;;2.80;99.90;;;;;;5131279;27;20897;-65
2024/01/15 09:35:28;;;;;;;2.57;2.33;;;3.10;99.90;;;;;;5131154;27;20233;-65
2024/01/15 09:37:56;;;;;;;2.53;2.33;;;3.30;99.90;;;;;;5131307;27;20675;-65
2024/01/15 09:40:27;;;;;;;3.03;2.27;;;3.40;99.90;;;;;;5131547;27;20615;-65
2024/01/15 09:42:56;;;;;;;2.40;2.20;;;3.60;99.90;;;;;;5130506;27;20271;-63
2024/01/15 09:45:25;;;;;;;2.87;2.37;;;3.30;99.90;;;;;;5130844;27;20191;-63
2024/01/15 09:47:54;;;;;;;2.10;1.90;;;3.20;99.90;;;;;;5131146;27;20202;-64
2024/01/15 09:50:22;;;;;;;2.60;2.40;;;3.20;99.90;;;;;;5128708;27;20236;-64
2024/01/15 09:52:51;;;;;;;2.60;2.23;;;3.40;99.90;;;;;;5130682;27;20202;-64
2024/01/15 09:55:20;;;;;;;2.70;2.50;;;3.50;99.90;;;;;;5121257;27;20863;-64
2024/01/15 09:57:48;;;;;;;4.60;3.20;;;3.40;99.90;;;;;;5109119;27;20249;-65
2024/01/15 10:00:19;;;;;;;2.43;2.23;;;3.50;99.90;;;;;;5126691;27;20548;-66
2024/01/15 10:02:49;;;;;;;3.83;2.27;;;3.30;99.90;;;;;;5120132;27;20284;-66
2024/01/15 10:05:20;;;;;;;3.23;2.23;;;3.30;99.90;;;;;;5123996;27;20195;-66
2024/01/15 10:07:51;;;;;;;3.23;2.47;;;3.30;99.90;;;;;;5114013;27;20191;-64
2024/01/15 10:10:22;;;;;;;2.43;2.23;;;3.50;99.90;;;;;;5128592;27;20200;-67
2024/01/15 10:12:56;;;;;;;2.33;2.03;;;3.30;99.90;;;;;;5110106;28;20195;-65
2024/01/15 10:15:26;;;;;;;4.27;2.50;;;3.20;99.90;;;;;;5109735;28;20311;-65
2024/01/15 10:17:56;;;;;;;2.60;2.00;;;3.20;99.90;;;;;;5117136;27;20577;-65
2024/01/15 10:20:25;;;;;;;3.13;2.57;;;2.90;99.90;;;;;;5112800;27;20557;-64
2024/01/15 10:22:53;;;;;;;3.80;2.70;;;2.90;99.90;;;;;;5109854;28;20196;-65
2024/01/15 10:25:25;;;;;;;3.93;2.50;;;2.90;99.90;;;;;;5109738;28;20658;-65
2024/01/15 10:28:01;;;;;;;5.53;3.20;;;3.10;99.90;;;;;;5109847;28;20499;-65
2024/01/15 10:30:29;;;;;;;3.40;3.10;;;3.00;99.90;;;;;;5109268;28;20215;-65
2024/01/15 10:33:04;;;;;;;3.23;2.80;;;3.20;99.90;;;;;;5109164;28;20206;-65
2024/01/15 10:35:35;;;;;;;3.93;2.60;;;3.20;99.90;;;;;;5109558;28;20223;-65
2024/01/15 10:38:04;;;;;;;5.57;2.67;;;2.70;99.90;;;;;;5113390;27;20194;-65
2024/01/15 10:40:33;;;;;;;4.40;2.83;;;2.50;99.90;;;;;;5129889;27;20198;-65
2024/01/15 10:43:07;;;;;;;2.83;2.40;;;2.40;99.90;;;;;;5129797;27;20208;-66
2024/01/15 10:45:36;;;;;;;2.83;2.50;;;2.30;99.90;;;;;;5110589;27;20224;-66
2024/01/15 10:48:10;;;;;;;3.67;2.27;;;2.30;99.90;;;;;;5129585;27;20196;-66
2024/01/15 10:50:39;;;;;;;3.60;2.20;;;2.30;99.90;;;;;;5129868;27;20196;-67
2024/01/15 10:53:09;;;;;;;4.00;2.40;;;2.50;99.90;;;;;;5110615;27;20258;-65
2024/01/15 10:55:39;;;;;;;3.23;2.80;;;2.60;99.90;;;;;;5129523;27;20236;-65
2024/01/15 10:58:08;;;;;;;3.87;2.90;;;2.80;99.90;;;;;;5129957;27;20209;-65
2024/01/15 11:00:40;;;;;;;4.17;2.67;;;3.00;99.90;;;;;;5129347;27;20268;-64
2024/01/15 11:03:11;;;;;;;2.60;2.40;;;3.30;99.90;;;;;;5129579;27;20267;-64
2024/01/15 11:05:40;;;;;;;3.90;2.43;;;3.60;99.90;;;;;;5129669;27;20325;-64
2024/01/15 11:08:08;;;;;;;3.80;2.57;;;3.60;99.90;;;;;;5129166;27;20199;-64
2024/01/15 11:10:42;;;;;;;2.97;2.27;;;3.60;99.90;;;;;;5129704;27;20203;-65
2024/01/15 11:13:15;;;;;;;5.33;2.73;;;3.20;99.90;;;;;;5129485;27;20199;-66
2024/01/15 11:16:02;;;;;;;2.33;2.13;;;3.20;99.90;;;;;;5128877;27;20546;-65
2024/01/15 11:18:35;;;;;;;5.50;2.10;;;2.80;99.90;;;;;;5129308;27;20298;-65
2024/01/15 11:21:24;;;;;;;1.90;1.80;;;2.80;99.90;;;;;;5129460;27;20594;-64
2024/01/15 11:23:57;;;;;;;3.63;2.80;;;2.80;99.90;;;;;;5129089;27;20207;-64
2024/01/15 11:26:59;;;;;;;4.30;2.47;;;2.60;99.90;;;;;;5129196;27;20194;-66
2024/01/15 11:29:31;;;;;;;3.10;2.50;;;2.70;99.90;;;;;;5064388;28;20283;-65
2024/01/15 11:32:03;;;;;;;3.90;3.10;;;2.70;99.90;;;;;;5065383;28;20246;-65
2024/01/15 11:34:52;;;;;;;4.87;3.03;;;3.00;99.90;;;;;;5065008;28;20228;-64
2024/01/15 11:37:23;;;;;;;7.60;3.77;;;3.20;99.90;;;;;;5065181;28;20204;-64
2024/01/15 11:39:53;;;;;;;6.43;3.27;;;3.50;99.90;;;;;;5065080;28;20200;-64
2024/01/15 11:42:23;;;;;;;3.27;2.33;;;3.60;99.90;;;;;;5064767;28;20588;-64
2024/01/15 11:44:51;;;;;;;3.60;2.90;;;3.80;99.90;;;;;;5064549;28;20204;-66
2024/01/15 11:47:55;;;;;;;4.77;2.70;;;3.50;99.90;;;;;;5065121;28;20208;-65
2024/01/15 11:50:27;;;;;;;3.13;2.60;;;3.40;99.90;;;;;;5065147;28;21039;-66
2024/01/15 11:53:02;;;;;;;4.40;2.87;;;3.30;99.90;;;;;;5064995;28;20968;-66
2024/01/15 11:55:36;;;;;;;2.53;2.33;;;3.10;99.90;;;;;;5064801;28;20224;-66
2024/01/15 11:58:09;;;;;;;2.73;2.43;;;3.30;99.90;;;;;;5064791;28;20296;-65
2024/01/15 12:00:42;;;;;;;4.17;2.90;;;3.20;99.90;;;;;;5065088;28;20201;-66
2024/01/15 12:03:11;;;;;;;4.20;2.70;;;3.20;99.90;;;;;;5064838;28;20884;-66
2024/01/15 12:05:42;;;;;;;5.23;2.53;;;3.40;99.90;;;;;;5074446;28;20330;-66
2024/01/15 12:08:11;;;;;;;2.47;2.13;;;3.50;99.90;;;;;;5109345;28;20199;-65
2024/01/15 12:10:41;;;;;;;3.60;2.47;;;3.40;99.90;;;;;;5110286;28;20231;-65
2024/01/15 12:13:12;;;;;;;3.73;2.40;;;3.40;99.90;;;;;;5128232;28;20206;-66
2024/01/15 12:15:42;;;;;;;2.10;2.00;;;3.40;99.90;;;;;;5128588;28;20563;-64
2024/01/15 12:18:12;;;;;;;5.63;2.60;;;3.10;99.90;;;;;;5129000;28;20288;-64
2024/01/15 12:20:43;;;;;;;2.30;2.10;;;3.10;99.90;;;;;;5128835;28;20203;-66
2024/01/15 12:23:13;;;;;;;2.63;2.13;;;3.10;99.90;;;;;;5128446;28;20754;-64
2024/01/15 12:25:41;;;;;;;2.40;2.03;;;3.10;99.90;;;;;;5128466;28;20226;-64
2024/01/15 12:28:10;;;;;;;3.97;2.37;;;3.00;99.90;;;;;;5128181;28;20202;-65
2024/01/15 12:30:40;;;;;;;4.67;2.60;;;2.90;99.90;;;;;;5128686;28;20221;-65
2024/01/15 12:33:11;;;;;;;3.30;2.67;;;2.80;99.90;;;;;;5128501;28;20215;-66
2024/01/15 12:35:45;;;;;;;4.30;2.43;;;2.80;99.90;;;;;;5129216;28;20223;-67
2024/01/15 12:38:14;;;;;;;2.20;2.10;;;2.80;99.90;;;;;;5128298;28;20276;-67
2024/01/15 12:40:47;;;;;;;3.47;2.50;;;2.70;99.90;;;;;;5128593;28;20231;-67
2024/01/15 12:43:16;;;;;;;2.97;2.53;;;2.50;99.90;;;;;;5128705;28;20229;-67
2024/01/15 12:45:45;;;;;;;2.90;2.70;;;2.50;99.90;;;;;;5128544;28;20191;-66
2024/01/15 12:48:15;;;;;;;3.07;2.30;;;2.40;99.90;;;;;;5128641;28;20675;-66
2024/01/15 12:50:45;;;;;;;4.37;2.87;;;2.30;99.90;;;;;;5128706;28;20221;-66
2024/01/15 12:53:13;;;;;;;4.50;3.30;;;2.40;99.90;;;;;;5131139;27;20223;-66
2024/01/15 12:55:42;;;;;;;8.80;3.73;;;2.40;99.90;;;;;;5132048;27;20222;-66
2024/01/15 12:58:10;;;;;;;6.90;3.43;;;2.40;99.90;;;;;;5132508;27;20837;-66
2024/01/15 13:00:39;;;;;;;5.93;3.90;;;2.50;99.90;;;;;;5132452;27;20196;-66
2024/01/15 13:03:08;;;;;;;7.20;3.83;;;2.40;99.90;;;;;;5113137;27;20396;-66
2024/01/15 13:05:37;;;;;;;6.13;4.27;;;2.40;99.90;;;;;;5132138;27;20723;-66
2024/01/15 13:08:08;;;;;;;6.83;4.43;;;2.50;99.90;;;;;;5131976;27;20197;-71
2024/01/15 13:10:36;;;;;;;8.17;4.47;;;2.50;99.90;;;;;;5132048;27;20601;-66
2024/01/15 13:13:05;;;;;;;8.20;4.53;;;2.40;99.90;;;;;;5131723;27;20217;-66
2024/01/15 13:15:33;;;;;;;9.13;5.47;;;2.50;99.90;;;;;;5131967;27;20226;-67
2024/01/15 13:18:02;;;;;;;6.47;4.60;;;2.50;99.90;;;;;;5131735;27;20231;-66